createdAt,value
2019-01-12T00:00:31.276Z,0.00
2019-01-12T00:01:31.263Z,0.00
2019-01-12T00:02:31.261Z,0.00
2019-01-12T00:03:31.237Z,0.00
2019-01-12T00:04:31.272Z,0.00
2019-01-12T00:05:31.235Z,0.00
2019-01-12T00:06:31.210Z,0.00
2019-01-12T00:07:31.203Z,0.00
2019-01-12T00:08:31.196Z,0.00
2019-01-12T00:09:31.224Z,0.00
2019-01-12T00:10:31.166Z,0.00
2019-01-12T00:11:31.218Z,0.00
2019-01-12T00:12:31.168Z,0.00
2019-01-12T00:13:31.187Z,0.00
2019-01-12T00:14:31.183Z,0.00
2019-01-12T00:15:31.117Z,0.00
2019-01-12T00:16:31.142Z,0.00
2019-01-12T00:17:31.096Z,0.00
2019-01-12T00:18:31.103Z,0.00
2019-01-12T00:19:31.109Z,0.00
2019-01-12T00:20:31.074Z,0.00
2019-01-12T00:21:31.055Z,0.00
2019-01-12T00:22:31.049Z,0.00
2019-01-12T00:23:31.036Z,0.00
2019-01-12T00:24:31.722Z,0.00
2019-01-12T00:25:31.006Z,0.00
2019-01-12T00:26:31.035Z,0.00
2019-01-12T00:27:30.972Z,0.00
2019-01-12T00:28:30.991Z,0.00
2019-01-12T00:29:31.009Z,0.00
2019-01-12T00:30:30.969Z,0.00
2019-01-12T00:31:30.956Z,0.00
2019-01-12T00:33:47.557Z,0.00
2019-01-12T00:34:47.503Z,0.00
2019-01-12T00:35:47.529Z,0.00
2019-01-12T00:36:47.577Z,0.00
2019-01-12T00:37:47.505Z,0.00
2019-01-12T00:38:47.449Z,0.00
2019-01-12T00:39:47.847Z,0.00
2019-01-12T00:40:47.439Z,0.00
2019-01-12T00:41:47.417Z,0.00
2019-01-12T00:42:47.420Z,0.00
2019-01-12T00:43:47.415Z,0.00
2019-01-12T00:44:47.398Z,0.00
2019-01-12T00:45:47.370Z,0.00
2019-01-12T00:46:47.385Z,0.00
2019-01-12T00:47:47.364Z,0.00
2019-01-12T00:48:47.361Z,0.00
2019-01-12T00:49:47.366Z,0.00
2019-01-12T00:50:47.326Z,0.00
2019-01-12T00:51:47.310Z,0.00
2019-01-12T00:52:47.318Z,0.00
2019-01-12T00:53:47.990Z,0.00
2019-01-12T00:54:47.327Z,0.00
2019-01-12T00:55:47.277Z,0.00
2019-01-12T00:56:47.257Z,0.00
2019-01-12T00:57:47.265Z,0.00
2019-01-12T00:58:47.249Z,0.00
2019-01-12T00:59:47.260Z,0.00
2019-01-12T01:00:47.240Z,0.00
2019-01-12T01:01:47.226Z,0.00
2019-01-12T01:02:47.201Z,0.00
2019-01-12T01:03:47.194Z,0.00
2019-01-12T01:04:47.211Z,0.00
2019-01-12T01:05:47.183Z,0.00
2019-01-12T01:06:47.169Z,0.00
2019-01-12T01:07:47.150Z,0.00
2019-01-12T01:08:47.134Z,0.00
2019-01-12T01:09:47.137Z,0.00
2019-01-12T01:10:47.134Z,0.00
2019-01-12T01:11:47.132Z,0.00
2019-01-12T01:12:47.080Z,0.00
2019-01-12T01:13:47.084Z,0.00
2019-01-12T01:14:47.111Z,0.00
2019-01-12T01:15:47.080Z,0.00
2019-01-12T01:16:47.076Z,0.00
2019-01-12T01:17:47.047Z,0.00
2019-01-12T01:18:47.051Z,0.00
2019-01-12T01:19:47.059Z,0.00
2019-01-12T01:20:47.056Z,0.00
2019-01-12T01:21:47.022Z,0.00
2019-01-12T01:22:47.038Z,0.00
2019-01-12T01:23:47.016Z,0.00
2019-01-12T01:24:47.007Z,0.00
2019-01-12T01:25:46.952Z,0.00
2019-01-12T01:26:46.930Z,0.00
2019-01-12T01:27:46.927Z,0.00
2019-01-12T01:28:46.931Z,0.00
2019-01-12T01:29:46.945Z,0.00
2019-01-12T01:30:46.915Z,0.00
2019-01-12T01:31:46.883Z,0.00
2019-01-12T01:32:46.926Z,0.00
2019-01-12T01:33:46.868Z,0.00
2019-01-12T01:34:46.924Z,0.00
2019-01-12T01:35:46.895Z,0.00
2019-01-12T01:36:46.854Z,0.00
2019-01-12T01:37:55.945Z,0.00
2019-01-12T01:38:46.936Z,0.00
2019-01-12T01:39:54.414Z,0.00
2019-01-12T01:40:46.961Z,0.00
2019-01-12T01:41:46.891Z,0.00
2019-01-12T01:42:46.825Z,0.00
2019-01-12T01:43:46.766Z,0.00
2019-01-12T01:44:46.768Z,0.00
2019-01-12T01:45:46.758Z,0.00
2019-01-12T01:46:46.759Z,0.00
2019-01-12T01:47:46.741Z,0.00
2019-01-12T01:48:47.399Z,0.00
2019-01-12T01:49:46.723Z,0.00
2019-01-12T01:50:46.725Z,0.00
2019-01-12T01:51:47.418Z,0.00
2019-01-12T01:52:48.266Z,0.00
2019-01-12T01:53:46.679Z,0.00
2019-01-12T01:54:52.611Z,0.00
2019-01-12T01:55:47.695Z,0.00
2019-01-12T01:56:46.642Z,0.00
2019-01-12T01:57:46.632Z,0.00
2019-01-12T01:58:46.618Z,0.00
2019-01-12T01:59:46.616Z,0.00
2019-01-12T02:00:54.722Z,0.00
2019-01-12T02:01:54.802Z,0.00
2019-01-12T02:02:46.656Z,0.00
2019-01-12T02:03:46.570Z,0.00
2019-01-12T02:04:46.556Z,0.00
2019-01-12T02:05:46.545Z,0.00
2019-01-12T02:06:46.521Z,0.00
2019-01-12T02:07:46.532Z,0.00
2019-01-12T02:08:46.526Z,0.00
2019-01-12T02:09:46.490Z,0.00
2019-01-12T02:10:46.504Z,0.00
2019-01-12T02:11:46.475Z,0.00
2019-01-12T02:12:46.455Z,0.00
2019-01-12T02:13:46.456Z,0.00
2019-01-12T02:14:46.457Z,0.00
2019-01-12T02:15:46.436Z,0.00
2019-01-12T02:16:46.432Z,0.00
2019-01-12T02:17:46.433Z,0.00
2019-01-12T02:18:46.403Z,0.00
2019-01-12T02:19:46.396Z,0.00
2019-01-12T02:20:46.391Z,0.00
2019-01-12T02:21:46.993Z,0.00
2019-01-12T02:22:46.361Z,0.00
2019-01-12T02:23:46.328Z,0.00
2019-01-12T02:24:46.321Z,0.00
2019-01-12T02:25:46.330Z,0.00
2019-01-12T02:26:46.301Z,0.00
2019-01-12T02:27:46.290Z,0.00
2019-01-12T02:28:46.291Z,0.00
2019-01-12T02:29:53.371Z,0.00
2019-01-12T02:30:54.414Z,0.00
2019-01-12T02:31:46.273Z,0.00
2019-01-12T02:32:46.248Z,0.00
2019-01-12T02:33:46.255Z,0.00
2019-01-12T02:34:46.214Z,0.00
2019-01-12T02:35:46.222Z,0.00
2019-01-12T02:36:46.195Z,0.00
2019-01-12T02:37:46.205Z,0.00
2019-01-12T02:38:46.211Z,0.00
2019-01-12T02:39:46.212Z,0.00
2019-01-12T02:40:46.178Z,0.00
2019-01-12T02:41:46.139Z,0.00
2019-01-12T02:42:46.148Z,0.00
2019-01-12T02:43:46.125Z,0.00
2019-01-12T02:44:46.122Z,0.00
2019-01-12T02:45:46.142Z,0.00
2019-01-12T02:46:46.096Z,0.00
2019-01-12T02:47:46.103Z,0.00
2019-01-12T02:48:46.074Z,0.00
2019-01-12T02:49:46.069Z,0.00
2019-01-12T02:50:46.061Z,0.00
2019-01-12T02:51:46.088Z,0.00
2019-01-12T02:52:46.037Z,0.00
2019-01-12T02:53:46.021Z,0.00
2019-01-12T02:54:46.050Z,0.00
2019-01-12T02:55:46.032Z,0.00
2019-01-12T02:56:46.014Z,0.00
2019-01-12T02:57:46.097Z,0.00
2019-01-12T02:58:45.957Z,0.00
2019-01-12T02:59:45.959Z,0.00
2019-01-12T03:00:45.976Z,0.00
2019-01-12T03:01:45.938Z,0.00
2019-01-12T03:02:45.932Z,0.00
2019-01-12T03:03:45.932Z,0.00
2019-01-12T03:04:45.888Z,0.00
2019-01-12T03:05:45.921Z,0.00
2019-01-12T03:06:45.890Z,0.00
2019-01-12T03:07:45.895Z,0.00
2019-01-12T03:08:45.857Z,0.00
2019-01-12T03:09:45.831Z,0.00
2019-01-12T03:10:45.859Z,0.00
2019-01-12T03:11:45.840Z,0.00
2019-01-12T03:12:45.820Z,0.00
2019-01-12T03:13:45.826Z,0.00
2019-01-12T03:14:45.814Z,0.00
2019-01-12T03:15:45.795Z,0.00
2019-01-12T03:16:45.767Z,0.00
2019-01-12T03:17:45.777Z,0.00
2019-01-12T03:18:45.767Z,0.00
2019-01-12T03:19:45.759Z,0.00
2019-01-12T03:20:45.769Z,0.00
2019-01-12T03:21:45.735Z,0.00
2019-01-12T03:22:45.722Z,0.00
2019-01-12T03:23:45.729Z,0.00
2019-01-12T03:24:45.689Z,0.00
2019-01-12T03:25:45.710Z,0.00
2019-01-12T03:26:45.670Z,0.00
2019-01-12T03:27:45.657Z,0.00
2019-01-12T03:28:45.675Z,0.00
2019-01-12T03:29:45.648Z,0.00
2019-01-12T03:30:45.650Z,0.00
2019-01-12T03:31:45.638Z,0.00
2019-01-12T03:32:45.694Z,0.00
2019-01-12T03:33:45.609Z,0.00
2019-01-12T03:34:45.573Z,0.00
2019-01-12T03:35:45.605Z,0.00
2019-01-12T03:36:45.573Z,0.00
2019-01-12T03:37:45.569Z,0.00
2019-01-12T03:38:45.536Z,0.00
2019-01-12T03:39:45.522Z,0.00
2019-01-12T03:40:45.587Z,0.00
2019-01-12T03:41:45.514Z,0.00
2019-01-12T03:42:45.528Z,0.00
2019-01-12T03:43:45.503Z,0.00
2019-01-12T03:44:45.476Z,0.00
2019-01-12T03:45:45.449Z,0.00
2019-01-12T03:46:45.473Z,0.00
2019-01-12T03:47:45.437Z,0.00
2019-01-12T03:48:45.456Z,0.00
2019-01-12T03:49:45.453Z,0.00
2019-01-12T03:50:45.418Z,0.00
2019-01-12T03:51:45.407Z,0.00
2019-01-12T03:52:45.387Z,0.00
2019-01-12T03:53:45.398Z,0.00
2019-01-12T03:54:45.381Z,0.00
2019-01-12T03:55:45.375Z,0.00
2019-01-12T03:56:45.393Z,0.00
2019-01-12T03:57:45.400Z,0.00
2019-01-12T03:58:45.326Z,0.00
2019-01-12T03:59:45.327Z,0.00
2019-01-12T04:00:45.293Z,0.00
2019-01-12T04:01:45.323Z,0.00
2019-01-12T04:02:45.289Z,0.00
2019-01-12T04:03:45.271Z,0.00
2019-01-12T04:04:53.351Z,0.00
2019-01-12T04:06:57.020Z,0.00
2019-01-12T04:08:04.997Z,0.00
2019-01-12T04:08:56.867Z,0.00
2019-01-12T04:09:56.905Z,0.00
2019-01-12T04:10:56.858Z,0.00
2019-01-12T04:12:03.942Z,0.00
2019-01-12T04:12:56.839Z,0.00
2019-01-12T04:14:04.963Z,0.00
2019-01-12T04:14:56.818Z,0.00
2019-01-12T04:16:03.894Z,0.00
2019-01-12T04:17:04.914Z,0.00
2019-01-12T04:17:56.809Z,0.00
2019-01-12T04:18:56.784Z,0.00
2019-01-12T04:19:56.784Z,0.00
2019-01-12T04:20:56.732Z,0.00
2019-01-12T04:21:56.733Z,0.00
2019-01-12T04:22:56.730Z,0.00
2019-01-12T04:23:56.684Z,0.00
2019-01-12T04:24:56.703Z,0.00
2019-01-12T04:25:56.683Z,0.00
2019-01-12T04:26:56.690Z,0.00
2019-01-12T04:27:56.681Z,0.00
2019-01-12T04:28:56.656Z,0.00
2019-01-12T04:29:56.649Z,0.00
2019-01-12T04:30:56.646Z,0.00
2019-01-12T04:31:56.645Z,0.00
2019-01-12T04:33:04.376Z,0.00
2019-01-12T04:36:38.329Z,0.00
2019-01-12T04:37:46.269Z,0.00
2019-01-12T04:38:38.631Z,0.00
2019-01-12T04:39:38.189Z,0.00
2019-01-12T04:40:38.167Z,0.00
2019-01-12T04:41:38.168Z,0.00
2019-01-12T04:42:38.145Z,0.00
2019-01-12T04:43:38.149Z,0.00
2019-01-12T04:44:38.175Z,0.00
2019-01-12T04:45:38.101Z,0.00
2019-01-12T04:46:38.124Z,0.00
2019-01-12T04:47:45.235Z,0.00
2019-01-12T04:48:38.735Z,0.00
2019-01-12T04:49:38.092Z,0.00
2019-01-12T04:50:38.065Z,0.00
2019-01-12T04:51:38.077Z,0.00
2019-01-12T04:52:38.024Z,0.00
2019-01-12T04:53:38.021Z,0.00
2019-01-12T04:54:38.012Z,0.00
2019-01-12T04:55:41.463Z,0.00
2019-01-12T04:56:38.025Z,0.00
2019-01-12T04:57:38.005Z,0.00
2019-01-12T04:58:37.985Z,0.00
2019-01-12T04:59:37.972Z,0.00
2019-01-12T05:00:37.959Z,0.00
2019-01-12T05:01:37.959Z,0.00
2019-01-12T05:02:37.945Z,0.00
2019-01-12T05:03:46.030Z,0.00
2019-01-12T05:04:46.006Z,0.00
2019-01-12T05:05:37.996Z,0.00
2019-01-12T05:06:37.923Z,0.00
2019-01-12T05:07:37.867Z,0.00
2019-01-12T05:08:37.859Z,0.00
2019-01-12T05:09:37.839Z,0.00
2019-01-12T05:10:37.866Z,0.00
2019-01-12T05:11:37.877Z,0.00
2019-01-12T05:12:38.785Z,0.00
2019-01-12T05:13:37.827Z,0.00
2019-01-12T05:14:37.823Z,0.00
2019-01-12T05:15:37.822Z,0.00
2019-01-12T05:16:37.819Z,0.00
2019-01-12T05:17:37.824Z,0.00
2019-01-12T05:18:37.797Z,0.00
2019-01-12T05:19:37.760Z,0.00
2019-01-12T05:20:37.742Z,0.00
2019-01-12T05:21:37.753Z,0.00
2019-01-12T05:22:37.736Z,0.00
2019-01-12T05:23:38.282Z,0.00
2019-01-12T05:24:37.774Z,0.00
2019-01-12T05:25:37.683Z,0.00
2019-01-12T05:26:37.727Z,0.00
2019-01-12T05:27:37.737Z,0.00
2019-01-12T05:28:37.660Z,0.00
2019-01-12T05:29:37.651Z,0.00
2019-01-12T05:30:37.626Z,0.00
2019-01-12T05:31:37.649Z,0.00
2019-01-12T05:32:37.606Z,0.00
2019-01-12T05:33:37.621Z,0.00
2019-01-12T05:34:37.606Z,0.00
2019-01-12T05:35:37.599Z,0.00
2019-01-12T05:36:37.604Z,0.00
2019-01-12T05:37:37.599Z,0.00
2019-01-12T05:38:37.577Z,0.00
2019-01-12T05:39:37.554Z,0.00
2019-01-12T05:40:37.545Z,0.00
2019-01-12T05:41:37.514Z,0.00
2019-01-12T05:42:37.530Z,0.00
2019-01-12T05:43:37.501Z,0.00
2019-01-12T05:44:37.501Z,0.00
2019-01-12T05:45:37.520Z,0.00
2019-01-12T05:46:44.584Z,0.00
2019-01-12T05:47:37.474Z,0.00
2019-01-12T05:48:46.338Z,0.00
2019-01-12T05:49:37.463Z,0.00
2019-01-12T05:50:37.463Z,0.00
2019-01-12T05:51:37.419Z,0.00
2019-01-12T05:52:37.427Z,0.00
2019-01-12T05:53:37.380Z,0.00
2019-01-12T05:54:37.367Z,0.00
2019-01-12T05:55:37.383Z,0.00
2019-01-12T05:56:37.362Z,0.00
2019-01-12T05:57:37.357Z,0.00
2019-01-12T05:58:37.349Z,0.00
2019-01-12T05:59:37.347Z,0.00
2019-01-12T06:00:37.324Z,0.00
2019-01-12T06:01:37.316Z,0.00
2019-01-12T06:02:37.311Z,0.00
2019-01-12T06:03:37.808Z,0.00
2019-01-12T06:04:37.285Z,0.00
2019-01-12T06:05:37.293Z,0.00
2019-01-12T06:06:37.324Z,0.00
2019-01-12T06:07:37.274Z,0.00
2019-01-12T06:08:37.278Z,0.00
2019-01-12T06:09:37.232Z,0.00
2019-01-12T06:10:37.222Z,0.00
2019-01-12T06:11:37.232Z,0.00
2019-01-12T06:12:37.227Z,0.00
2019-01-12T06:13:37.194Z,0.00
2019-01-12T06:14:37.199Z,0.00
2019-01-12T06:15:37.165Z,0.00
2019-01-12T06:16:45.205Z,0.00
2019-01-12T06:17:45.253Z,0.00
2019-01-12T06:18:44.937Z,0.00
2019-01-12T06:19:37.127Z,0.00
2019-01-12T06:20:37.134Z,0.00
2019-01-12T06:21:37.161Z,0.00
2019-01-12T06:22:37.099Z,0.00
2019-01-12T06:23:37.068Z,0.00
2019-01-12T06:24:37.071Z,0.00
2019-01-12T06:25:37.076Z,0.00
2019-01-12T06:26:37.044Z,0.00
2019-01-12T06:27:37.050Z,0.00
2019-01-12T06:28:37.037Z,0.00
2019-01-12T06:29:37.008Z,0.00
2019-01-12T06:30:36.999Z,0.00
2019-01-12T06:31:37.022Z,0.00
2019-01-12T06:32:36.989Z,0.00
2019-01-12T06:33:36.981Z,0.00
2019-01-12T06:34:37.884Z,0.00
2019-01-12T06:35:36.960Z,0.00
2019-01-12T06:36:36.952Z,0.00
2019-01-12T06:37:36.944Z,0.00
2019-01-12T06:38:36.958Z,0.00
2019-01-12T06:39:36.927Z,0.00
2019-01-12T06:40:37.888Z,0.00
2019-01-12T06:41:36.897Z,0.00
2019-01-12T06:42:36.888Z,0.00
2019-01-12T06:43:36.914Z,0.00
2019-01-12T06:44:36.863Z,0.00
2019-01-12T06:45:36.904Z,4.00
2019-01-12T06:46:37.391Z,4.00
2019-01-12T06:47:36.861Z,4.00
2019-01-12T06:48:37.367Z,4.00
2019-01-12T06:49:36.815Z,0.00
2019-01-12T06:50:36.788Z,4.00
2019-01-12T06:51:36.799Z,4.00
2019-01-12T06:52:36.797Z,8.00
2019-01-12T06:53:36.774Z,4.00
2019-01-12T06:54:36.771Z,8.00
2019-01-12T06:55:36.731Z,8.00
2019-01-12T06:56:36.729Z,8.00
2019-01-12T06:57:36.741Z,8.00
2019-01-12T06:58:36.720Z,12.00
2019-01-12T06:59:36.686Z,12.00
2019-01-12T07:00:36.714Z,16.00
2019-01-12T07:01:36.682Z,24.00
2019-01-12T07:02:36.705Z,24.00
2019-01-12T07:03:36.677Z,28.00
2019-01-12T07:04:36.666Z,32.00
2019-01-12T07:05:36.654Z,32.00
2019-01-12T07:06:36.628Z,32.00
2019-01-12T07:07:36.659Z,32.00
2019-01-12T07:08:36.606Z,36.00
2019-01-12T07:09:36.591Z,36.00
2019-01-12T07:10:36.583Z,44.00
2019-01-12T07:11:36.571Z,48.00
2019-01-12T07:12:36.603Z,48.00
2019-01-12T07:13:36.563Z,52.00
2019-01-12T07:14:44.440Z,52.00
2019-01-12T07:15:36.526Z,60.00
2019-01-12T07:16:36.526Z,72.00
2019-01-12T07:17:37.395Z,80.00
2019-01-12T07:18:36.503Z,100.00
2019-01-12T07:19:36.479Z,104.00
2019-01-12T07:20:36.478Z,116.00
2019-01-12T07:21:36.470Z,112.00
2019-01-12T07:22:36.480Z,128.00
2019-01-12T07:23:36.454Z,112.00
2019-01-12T07:24:36.483Z,128.00
2019-01-12T07:25:36.434Z,148.00
2019-01-12T07:26:36.432Z,148.00
2019-01-12T07:27:36.434Z,180.00
2019-01-12T07:28:36.407Z,200.00
2019-01-12T07:29:36.403Z,192.00
2019-01-12T07:30:36.455Z,200.00
2019-01-12T07:31:43.422Z,200.00
2019-01-12T07:32:36.379Z,256.00
2019-01-12T07:33:36.354Z,296.00
2019-01-12T07:34:36.409Z,312.00
2019-01-12T07:35:36.340Z,300.00
2019-01-12T07:36:36.348Z,320.00
2019-01-12T07:37:36.350Z,380.00
2019-01-12T07:38:36.333Z,388.00
2019-01-12T07:39:36.280Z,388.00
2019-01-12T07:40:36.273Z,372.00
2019-01-12T07:41:36.279Z,316.00
2019-01-12T07:42:36.330Z,312.00
2019-01-12T07:43:36.260Z,288.00
2019-01-12T07:44:36.276Z,336.00
2019-01-12T07:45:36.217Z,352.00
2019-01-12T07:46:36.227Z,352.00
2019-01-12T07:47:36.315Z,272.00
2019-01-12T07:48:36.219Z,244.00
2019-01-12T07:50:14.833Z,208.00
2019-01-12T07:50:36.241Z,200.00
2019-01-12T07:51:37.070Z,196.00
2019-01-12T07:52:36.157Z,236.00
2019-01-12T07:53:36.946Z,272.00
2019-01-12T07:54:45.139Z,236.00
2019-01-12T07:55:36.166Z,224.00
2019-01-12T07:56:44.358Z,260.00
2019-01-12T07:57:36.161Z,296.00
2019-01-12T07:58:36.227Z,344.00
2019-01-12T07:59:44.161Z,368.00
2019-01-12T08:00:43.680Z,412.00
2019-01-12T08:01:44.177Z,428.00
2019-01-12T08:02:45.654Z,424.00
2019-01-12T08:03:36.152Z,396.00
2019-01-12T08:04:43.666Z,388.00
2019-01-12T08:05:46.217Z,408.00
2019-01-12T08:06:44.106Z,472.00
2019-01-12T08:07:36.011Z,592.00
2019-01-12T08:08:43.158Z,760.00
2019-01-12T08:09:43.131Z,796.00
2019-01-12T08:10:36.124Z,804.00
2019-01-12T08:11:35.987Z,812.00
2019-01-12T08:12:35.945Z,828.00
2019-01-12T08:13:35.966Z,888.00
2019-01-12T08:14:35.907Z,916.00
2019-01-12T08:15:35.893Z,1112.00
2019-01-12T08:16:35.905Z,1224.00
2019-01-12T08:17:35.908Z,1300.00
2019-01-12T08:18:35.944Z,1488.00
2019-01-12T08:21:20.148Z,1920.00
2019-01-12T08:23:37.341Z,1920.00
2019-01-12T08:24:39.854Z,1848.00
2019-01-12T08:25:37.295Z,1872.00
2019-01-12T08:27:52.212Z,1756.00
2019-01-12T08:33:26.500Z,1856.00
2019-01-12T08:36:09.018Z,1624.00
2019-01-12T08:37:08.503Z,1508.00
2019-01-12T08:39:48.022Z,1260.00
2019-01-12T08:40:48.133Z,1224.00
2019-01-12T08:41:47.984Z,1160.00
2019-01-12T08:42:58.187Z,1172.00
2019-01-12T08:43:47.979Z,1264.00
2019-01-12T08:44:48.156Z,1088.00
2019-01-12T08:47:05.516Z,1188.00
2019-01-12T08:48:05.553Z,1212.00
2019-01-12T08:49:05.517Z,1228.00
2019-01-12T08:50:05.514Z,1136.00
2019-01-12T08:51:06.431Z,1180.00
2019-01-12T08:52:05.433Z,1156.00
2019-01-12T08:53:05.459Z,1264.00
2019-01-12T08:54:05.514Z,1128.00
2019-01-12T08:55:05.406Z,1136.00
2019-01-12T08:56:05.428Z,1284.00
2019-01-12T08:57:05.377Z,1384.00
2019-01-12T08:58:05.363Z,1284.00
2019-01-12T08:59:05.370Z,1228.00
2019-01-12T09:00:05.336Z,1192.00
2019-01-12T09:01:05.326Z,1060.00
2019-01-12T09:02:05.335Z,964.00
2019-01-12T09:03:05.824Z,992.00
2019-01-12T09:04:05.355Z,1248.00
2019-01-12T09:05:05.284Z,1448.00
2019-01-12T09:06:05.293Z,1960.00
2019-01-12T09:07:05.273Z,1736.00
2019-01-12T09:08:05.274Z,1676.00
2019-01-12T09:09:05.277Z,1692.00
2019-01-12T09:10:05.264Z,1568.00
2019-01-12T09:11:05.224Z,1804.00
2019-01-12T09:12:06.245Z,1960.00
2019-01-12T09:13:05.235Z,1920.00
2019-01-12T09:14:05.276Z,1836.00
2019-01-12T09:15:05.960Z,1704.00
2019-01-12T09:16:05.226Z,1624.00
2019-01-12T09:17:05.221Z,1532.00
2019-01-12T09:18:05.149Z,1372.00
2019-01-12T09:19:05.380Z,1420.00
2019-01-12T09:20:05.149Z,1460.00
2019-01-12T09:21:05.191Z,1416.00
2019-01-12T09:22:05.118Z,1480.00
2019-01-12T09:23:05.126Z,1700.00
2019-01-12T09:24:05.107Z,1596.00
2019-01-12T09:25:05.107Z,1476.00
2019-01-12T09:26:05.094Z,1528.00
2019-01-12T09:27:05.078Z,1304.00
2019-01-12T09:28:05.101Z,1216.00
2019-01-12T09:29:05.065Z,1424.00
2019-01-12T09:30:05.022Z,1412.00
2019-01-12T09:31:05.867Z,1432.00
2019-01-12T09:32:05.857Z,1472.00
2019-01-12T09:33:05.021Z,1388.00
2019-01-12T09:34:05.059Z,1552.00
2019-01-12T09:35:04.987Z,1460.00
2019-01-12T09:36:04.998Z,1488.00
2019-01-12T09:37:04.947Z,1484.00
2019-01-12T09:38:04.998Z,1624.00
2019-01-12T09:39:04.949Z,1700.00
2019-01-12T09:40:04.929Z,1696.00
2019-01-12T09:41:04.934Z,1812.00
2019-01-12T09:42:04.977Z,1724.00
2019-01-12T09:43:04.932Z,1824.00
2019-01-12T09:44:04.881Z,1680.00
2019-01-12T09:45:04.865Z,1724.00
2019-01-12T09:46:04.853Z,1636.00
2019-01-12T09:47:04.872Z,1736.00
2019-01-12T09:48:04.883Z,1560.00
2019-01-12T09:49:04.861Z,1456.00
2019-01-12T09:50:04.847Z,1536.00
2019-01-12T09:51:04.820Z,1476.00
2019-01-12T09:52:04.787Z,1244.00
2019-01-12T09:53:04.895Z,1368.00
2019-01-12T09:54:04.811Z,1700.00
2019-01-12T09:55:04.756Z,1716.00
2019-01-12T09:56:04.860Z,1800.00
2019-01-12T09:57:04.834Z,2140.00
2019-01-12T09:58:04.781Z,2852.00
2019-01-12T09:59:04.795Z,2784.00
2019-01-12T10:00:05.397Z,2852.00
2019-01-12T10:01:05.536Z,2676.00
2019-01-12T10:02:04.752Z,2364.00
2019-01-12T10:03:15.520Z,2256.00
2019-01-12T10:05:45.738Z,3164.00
2019-01-12T10:06:44.117Z,3512.00
2019-01-12T10:07:44.146Z,3020.00
2019-01-12T10:08:44.066Z,3352.00
2019-01-12T10:09:44.155Z,2976.00
2019-01-12T10:10:44.067Z,3332.00
2019-01-12T10:11:44.058Z,2440.00
2019-01-12T10:12:44.045Z,2888.00
2019-01-12T10:13:44.053Z,2816.00
2019-01-12T10:14:44.035Z,3876.00
2019-01-12T10:15:44.002Z,4340.00
2019-01-12T10:16:44.013Z,5192.00
2019-01-12T10:17:43.978Z,5076.00
2019-01-12T10:18:44.028Z,5740.00
2019-01-12T10:19:44.144Z,6392.00
2019-01-12T10:20:43.965Z,5252.00
2019-01-12T10:21:43.924Z,5208.00
2019-01-12T10:22:43.953Z,5708.00
2019-01-12T10:23:43.904Z,5576.00
2019-01-12T10:24:43.906Z,4604.00
2019-01-12T10:25:43.887Z,4928.00
2019-01-12T10:26:43.865Z,4532.00
2019-01-12T10:27:43.882Z,4580.00
2019-01-12T10:28:43.901Z,4864.00
2019-01-12T10:29:52.152Z,3648.00
2019-01-12T10:30:43.867Z,4448.00
2019-01-12T10:31:43.821Z,3268.00
2019-01-12T10:32:43.822Z,3464.00
2019-01-12T10:33:43.822Z,3000.00
2019-01-12T10:34:43.811Z,2872.00
2019-01-12T10:35:43.788Z,2656.00
2019-01-12T10:36:43.793Z,2876.00
2019-01-12T10:37:43.784Z,2268.00
2019-01-12T10:38:43.756Z,3756.00
2019-01-12T10:39:43.814Z,3176.00
2019-01-12T10:40:43.716Z,3884.00
2019-01-12T10:41:43.699Z,3752.00
2019-01-12T10:44:00.326Z,2808.00
2019-01-12T10:45:00.282Z,3684.00
2019-01-12T10:46:00.287Z,4016.00
2019-01-12T10:47:00.273Z,3316.00
2019-01-12T10:48:00.265Z,2876.00
2019-01-12T10:49:00.255Z,2644.00
2019-01-12T10:50:01.639Z,2636.00
2019-01-12T10:51:00.224Z,3776.00
2019-01-12T10:52:00.218Z,3396.00
2019-01-12T10:53:00.310Z,3196.00
2019-01-12T10:54:00.230Z,2224.00
2019-01-12T10:55:00.244Z,2024.00
2019-01-12T10:56:00.177Z,1552.00
2019-01-12T10:57:05.410Z,1800.00
2019-01-12T10:58:01.167Z,2184.00
2019-01-12T10:59:00.154Z,3376.00
2019-01-12T11:00:00.244Z,5016.00
2019-01-12T11:01:00.102Z,4776.00
2019-01-12T11:02:00.106Z,4624.00
2019-01-12T11:03:00.110Z,3412.00
2019-01-12T11:04:00.096Z,2472.00
2019-01-12T11:05:00.217Z,2104.00
2019-01-12T11:06:00.094Z,2352.00
2019-01-12T11:07:00.050Z,1816.00
2019-01-12T11:08:00.050Z,2448.00
2019-01-12T11:09:00.041Z,3868.00
2019-01-12T11:10:04.083Z,4276.00
2019-01-12T11:11:00.062Z,2844.00
2019-01-12T11:12:00.001Z,2756.00
2019-01-12T11:12:59.982Z,3308.00
2019-01-12T11:13:59.978Z,3308.00
2019-01-12T11:14:59.983Z,3176.00
2019-01-12T11:15:59.962Z,4168.00
2019-01-12T11:16:59.967Z,4692.00
2019-01-12T11:17:59.946Z,5636.00
2019-01-12T11:18:59.922Z,4892.00
2019-01-12T11:19:59.941Z,3112.00
2019-01-12T11:20:59.941Z,2756.00
2019-01-12T11:21:59.944Z,3816.00
2019-01-12T11:22:59.889Z,3760.00
2019-01-12T11:23:59.883Z,4508.00
2019-01-12T11:24:59.873Z,4384.00
2019-01-12T11:25:59.956Z,3896.00
2019-01-12T11:26:59.854Z,3796.00
2019-01-12T11:27:59.835Z,3044.00
2019-01-12T11:28:59.821Z,4020.00
2019-01-12T11:29:59.852Z,3700.00
2019-01-12T11:30:59.796Z,3504.00
2019-01-12T11:31:59.794Z,2972.00
2019-01-12T11:32:59.796Z,2548.00
2019-01-12T11:33:59.772Z,2276.00
2019-01-12T11:34:59.801Z,2168.00
2019-01-12T11:35:59.757Z,2284.00
2019-01-12T11:36:59.762Z,2620.00
2019-01-12T11:37:59.744Z,2648.00
2019-01-12T11:38:59.713Z,2848.00
2019-01-12T11:39:59.732Z,2044.00
2019-01-12T11:40:59.691Z,2560.00
2019-01-12T11:41:59.697Z,2556.00
2019-01-12T11:42:59.691Z,2700.00
2019-01-12T11:43:59.702Z,3076.00
2019-01-12T11:44:59.659Z,3168.00
2019-01-12T11:45:59.673Z,2556.00
2019-01-12T11:46:59.678Z,2288.00
2019-01-12T11:48:07.728Z,2216.00
2019-01-12T11:49:01.154Z,1548.00
2019-01-12T11:50:06.746Z,1852.00
2019-01-12T11:51:07.648Z,1648.00
2019-01-12T11:51:59.623Z,1388.00
2019-01-12T11:53:01.089Z,1132.00
2019-01-12T11:53:59.565Z,1056.00
2019-01-12T11:54:59.570Z,1096.00
2019-01-12T11:55:59.527Z,1692.00
2019-01-12T11:56:59.537Z,1712.00
2019-01-12T11:58:00.190Z,1812.00
2019-01-12T11:58:59.518Z,1788.00
2019-01-12T11:59:59.521Z,1956.00
2019-01-12T12:00:59.521Z,2616.00
2019-01-12T12:01:59.479Z,3240.00
2019-01-12T12:02:59.485Z,3176.00
2019-01-12T12:03:59.478Z,2824.00
2019-01-12T12:04:59.486Z,2616.00
2019-01-12T12:05:59.470Z,2964.00
2019-01-12T12:06:59.417Z,2844.00
2019-01-12T12:07:59.395Z,4576.00
2019-01-12T12:08:59.384Z,6112.00
2019-01-12T12:09:59.492Z,6048.00
2019-01-12T12:10:59.379Z,4856.00
2019-01-12T12:11:59.389Z,4200.00
2019-01-12T12:12:59.333Z,6176.00
2019-01-12T12:13:59.333Z,6400.00
2019-01-12T12:14:59.346Z,5336.00
2019-01-12T12:15:59.325Z,3844.00
2019-01-12T12:16:59.306Z,3476.00
2019-01-12T12:17:59.303Z,3392.00
2019-01-12T12:18:59.307Z,3368.00
2019-01-12T12:19:59.750Z,3068.00
2019-01-12T12:20:59.268Z,3012.00
2019-01-12T12:21:59.293Z,2828.00
2019-01-12T12:22:59.235Z,2468.00
2019-01-12T12:23:59.267Z,3304.00
2019-01-12T12:24:59.317Z,3228.00
2019-01-12T12:25:59.220Z,3004.00
2019-01-12T12:26:59.201Z,2952.00
2019-01-12T12:27:59.199Z,2872.00
2019-01-12T12:28:59.183Z,3168.00
2019-01-12T12:29:59.214Z,2672.00
2019-01-12T12:30:59.165Z,3116.00
2019-01-12T12:31:59.162Z,2524.00
2019-01-12T12:32:59.194Z,3256.00
2019-01-12T12:33:59.133Z,2624.00
2019-01-12T12:34:59.146Z,3144.00
2019-01-12T12:35:59.116Z,3372.00
2019-01-12T12:36:59.119Z,3328.00
2019-01-12T12:37:59.099Z,3200.00
2019-01-12T12:38:59.088Z,3480.00
2019-01-12T12:39:59.084Z,4284.00
2019-01-12T12:40:59.070Z,4584.00
2019-01-12T12:41:59.097Z,4252.00
2019-01-12T12:42:59.084Z,3692.00
2019-01-12T12:43:59.036Z,3708.00
2019-01-12T12:44:59.087Z,3440.00
2019-01-12T12:45:59.008Z,3156.00
2019-01-12T12:46:59.018Z,2944.00
2019-01-12T12:47:58.984Z,2672.00
2019-01-12T12:48:59.092Z,2552.00
2019-01-12T12:49:58.958Z,3400.00
2019-01-12T12:51:06.133Z,3980.00
2019-01-12T12:51:58.956Z,4264.00
2019-01-12T12:52:58.963Z,4432.00
2019-01-12T12:53:58.915Z,4300.00
2019-01-12T12:54:58.968Z,4184.00
2019-01-12T12:55:58.930Z,4260.00
2019-01-12T12:56:58.892Z,4284.00
2019-01-12T12:57:58.883Z,4952.00
2019-01-12T12:58:58.907Z,4944.00
2019-01-12T12:59:58.860Z,4300.00
2019-01-12T13:00:58.896Z,3480.00
2019-01-12T13:01:58.861Z,3092.00
2019-01-12T13:02:58.821Z,3048.00
2019-01-12T13:03:58.829Z,2800.00
2019-01-12T13:04:58.827Z,2856.00
2019-01-12T13:05:58.800Z,2168.00
2019-01-12T13:06:58.775Z,2032.00
2019-01-12T13:07:58.814Z,2452.00